Hlavní strana
METAR-TAF:

METAR-TAF

Letiště :

Curaçao, Nizozemské Antily

zeměpisná šířka: 12-12N, zeměpisná délka: 068-58W, výška: 9 m

Aktuální stav počasí

Zpráva byla vytvořena před 1 hodinou a 25 minutami, v 12:00 UTC
Východojihovýchodní vítr 11 kt
Teplota 27°C
Vlhkost vzduchu 79%
Tlak 1014 hPa
Viditelnost 10 km a více

METAR: TNCC 231200Z AUTO 11011KT 9999 NSC 27/23 Q1014

Čas: 09:25 (13:25 UTC)

Předpověď počasí

Zpráva byla vytvořena před 3 hodinami a 55 minutami, v 09:30 UTC
Předpověď platná od 23 v 12 UTC do 24 v 12 UTC
Východní vítr 14 kt
Viditelnost 10 km a více
Polojasno ve výšce 2000 ft
Dočasný
od 23 v 12 UTC do 23 v 16 UTC
Oblačno až skoro zataženo ve výšce 1500 ft

TAF: TNCC 230930Z 2312/2412 09014KT 9999 SCT020 TEMPO 2312/2316 BKN015

Stav a předpovědi počasí z více než 4 000 letišť (zprávy METAR a TAF).

Červené a žluté tečky na mapě představují dostupné meteorologické stanice.

Když kurzor umístíte na tečku, zobrazí se název stanice.

Pak kliknutím zobrazíte stav a předpověď počasí.

Chcete-li změnit mapu, kliknutím na zelené tlačítko se znaménkem +mapu přiblížíte, kliknutím na zelené tlačítko se znaménkem – mapu oddálíte a kliknutím na zelené šipky přejdete na sousední mapy.


METAR-TAF: